sensor_id;sensor_type;location;lat;lon;timestamp;temperature;humidity
29687;DHT22;16599;47.078;15.536;2022-09-24T00:01:27;6.00;99.90
29687;DHT22;16599;47.078;15.536;2022-09-24T00:03:56;6.00;99.90
29687;DHT22;16599;47.078;15.536;2022-09-24T00:06:27;5.90;99.90
29687;DHT22;16599;47.078;15.536;2022-09-24T00:08:55;5.80;99.90
29687;DHT22;16599;47.078;15.536;2022-09-24T00:11:24;5.80;99.90
29687;DHT22;16599;47.078;15.536;2022-09-24T00:13:52;6.00;99.90
29687;DHT22;16599;47.078;15.536;2022-09-24T00:16:21;6.00;99.90
29687;DHT22;16599;47.078;15.536;2022-09-24T00:18:48;6.10;99.90
29687;DHT22;16599;47.078;15.536;2022-09-24T00:21:19;5.90;99.90
29687;DHT22;16599;47.078;15.536;2022-09-24T00:23:55;5.80;99.90
29687;DHT22;16599;47.078;15.536;2022-09-24T00:26:22;5.70;99.90
29687;DHT22;16599;47.078;15.536;2022-09-24T00:29:09;5.50;99.90
29687;DHT22;16599;47.078;15.536;2022-09-24T00:31:37;5.40;99.90
29687;DHT22;16599;47.078;15.536;2022-09-24T00:34:04;5.60;99.90
29687;DHT22;16599;47.078;15.536;2022-09-24T00:36:31;5.80;99.90
29687;DHT22;16599;47.078;15.536;2022-09-24T00:38:59;5.60;99.90
29687;DHT22;16599;47.078;15.536;2022-09-24T00:41:32;5.70;99.90
29687;DHT22;16599;47.078;15.536;2022-09-24T00:43:59;5.90;99.90
29687;DHT22;16599;47.078;15.536;2022-09-24T00:46:39;6.00;99.90
29687;DHT22;16599;47.078;15.536;2022-09-24T00:49:15;5.80;99.90
29687;DHT22;16599;47.078;15.536;2022-09-24T00:51:45;5.90;99.90
29687;DHT22;16599;47.078;15.536;2022-09-24T00:54:18;5.90;99.90
29687;DHT22;16599;47.078;15.536;2022-09-24T00:56:48;5.70;99.90
29687;DHT22;16599;47.078;15.536;2022-09-24T00:59:18;5.80;99.90
29687;DHT22;16599;47.078;15.536;2022-09-24T01:01:47;5.90;99.90
29687;DHT22;16599;47.078;15.536;2022-09-24T01:04:16;5.70;99.90
29687;DHT22;16599;47.078;15.536;2022-09-24T01:06:47;5.70;99.90
29687;DHT22;16599;47.078;15.536;2022-09-24T01:09:15;5.60;99.90
29687;DHT22;16599;47.078;15.536;2022-09-24T01:14:50;5.70;99.90
29687;DHT22;16599;47.078;15.536;2022-09-24T01:20:05;5.60;99.90
29687;DHT22;16599;47.078;15.536;2022-09-24T01:30:35;5.40;99.90
29687;DHT22;16599;47.078;15.536;2022-09-24T01:33:07;5.50;99.90
29687;DHT22;16599;47.078;15.536;2022-09-24T01:35:44;5.40;99.90
29687;DHT22;16599;47.078;15.536;2022-09-24T01:38:17;5.20;99.90
29687;DHT22;16599;47.078;15.536;2022-09-24T01:40:45;5.30;99.90
29687;DHT22;16599;47.078;15.536;2022-09-24T01:43:15;5.30;99.90
29687;DHT22;16599;47.078;15.536;2022-09-24T01:45:42;5.30;99.90
29687;DHT22;16599;47.078;15.536;2022-09-24T01:48:09;5.20;99.90
29687;DHT22;16599;47.078;15.536;2022-09-24T01:51:15;5.00;99.90
29687;DHT22;16599;47.078;15.536;2022-09-24T01:56:27;5.30;99.90
29687;DHT22;16599;47.078;15.536;2022-09-24T01:59:11;5.30;99.90
29687;DHT22;16599;47.078;15.536;2022-09-24T02:01:45;5.10;99.90
29687;DHT22;16599;47.078;15.536;2022-09-24T02:04:18;5.20;99.90
29687;DHT22;16599;47.078;15.536;2022-09-24T02:06:59;5.00;99.90
29687;DHT22;16599;47.078;15.536;2022-09-24T02:09:38;5.20;99.90
29687;DHT22;16599;47.078;15.536;2022-09-24T02:12:08;5.00;99.90
29687;DHT22;16599;47.078;15.536;2022-09-24T02:14:41;5.00;99.90
29687;DHT22;16599;47.078;15.536;2022-09-24T02:17:10;5.20;99.90
29687;DHT22;16599;47.078;15.536;2022-09-24T02:19:38;5.20;99.90
29687;DHT22;16599;47.078;15.536;2022-09-24T02:22:08;5.20;99.90
29687;DHT22;16599;47.078;15.536;2022-09-24T02:24:46;5.30;99.90
29687;DHT22;16599;47.078;15.536;2022-09-24T02:27:16;5.10;99.90
29687;DHT22;16599;47.078;15.536;2022-09-24T02:29:43;5.20;99.90
29687;DHT22;16599;47.078;15.536;2022-09-24T02:32:14;5.20;99.90
29687;DHT22;16599;47.078;15.536;2022-09-24T02:34:45;5.20;99.90
29687;DHT22;16599;47.078;15.536;2022-09-24T02:37:15;5.10;99.90
29687;DHT22;16599;47.078;15.536;2022-09-24T02:39:42;5.00;99.90
29687;DHT22;16599;47.078;15.536;2022-09-24T02:42:11;4.80;99.90
29687;DHT22;16599;47.078;15.536;2022-09-24T02:44:39;4.80;99.90
29687;DHT22;16599;47.078;15.536;2022-09-24T02:47:06;4.80;99.90
29687;DHT22;16599;47.078;15.536;2022-09-24T02:49:33;4.90;99.90
29687;DHT22;16599;47.078;15.536;2022-09-24T02:52:00;5.00;99.90
29687;DHT22;16599;47.078;15.536;2022-09-24T02:54:26;5.10;99.90
29687;DHT22;16599;47.078;15.536;2022-09-24T02:56:53;5.10;99.90
29687;DHT22;16599;47.078;15.536;2022-09-24T02:59:20;5.00;99.90
29687;DHT22;16599;47.078;15.536;2022-09-24T03:01:48;5.00;99.90
29687;DHT22;16599;47.078;15.536;2022-09-24T03:04:15;5.20;99.90
29687;DHT22;16599;47.078;15.536;2022-09-24T03:06:42;5.30;99.90
29687;DHT22;16599;47.078;15.536;2022-09-24T03:09:11;5.30;99.90
29687;DHT22;16599;47.078;15.536;2022-09-24T03:11:38;5.00;99.90
29687;DHT22;16599;47.078;15.536;2022-09-24T03:14:05;5.00;99.90
29687;DHT22;16599;47.078;15.536;2022-09-24T03:16:32;5.00;99.90
29687;DHT22;16599;47.078;15.536;2022-09-24T03:18:59;5.10;99.90
29687;DHT22;16599;47.078;15.536;2022-09-24T03:21:26;5.00;99.90
29687;DHT22;16599;47.078;15.536;2022-09-24T03:23:53;4.90;99.90
29687;DHT22;16599;47.078;15.536;2022-09-24T03:26:20;4.90;99.90
29687;DHT22;16599;47.078;15.536;2022-09-24T03:28:47;4.80;99.90
29687;DHT22;16599;47.078;15.536;2022-09-24T03:31:13;4.90;99.90
29687;DHT22;16599;47.078;15.536;2022-09-24T03:36:21;4.80;99.90
29687;DHT22;16599;47.078;15.536;2022-09-24T03:38:50;4.70;99.90
29687;DHT22;16599;47.078;15.536;2022-09-24T03:41:18;4.70;99.90
29687;DHT22;16599;47.078;15.536;2022-09-24T03:43:45;5.00;99.90
29687;DHT22;16599;47.078;15.536;2022-09-24T03:46:12;5.10;99.90
29687;DHT22;16599;47.078;15.536;2022-09-24T03:48:40;5.10;99.90
29687;DHT22;16599;47.078;15.536;2022-09-24T03:51:09;5.00;99.90
29687;DHT22;16599;47.078;15.536;2022-09-24T03:53:36;5.00;99.90
29687;DHT22;16599;47.078;15.536;2022-09-24T03:56:04;5.00;99.90
29687;DHT22;16599;47.078;15.536;2022-09-24T03:58:33;4.80;99.90
29687;DHT22;16599;47.078;15.536;2022-09-24T04:01:04;4.60;99.90
29687;DHT22;16599;47.078;15.536;2022-09-24T04:03:31;4.60;99.90
29687;DHT22;16599;47.078;15.536;2022-09-24T04:05:58;4.80;99.90
29687;DHT22;16599;47.078;15.536;2022-09-24T04:08:25;4.90;99.90
29687;DHT22;16599;47.078;15.536;2022-09-24T04:10:52;5.10;99.90
29687;DHT22;16599;47.078;15.536;2022-09-24T04:13:19;5.10;99.90
29687;DHT22;16599;47.078;15.536;2022-09-24T04:15:45;5.20;99.90
29687;DHT22;16599;47.078;15.536;2022-09-24T04:18:14;5.10;99.90
29687;DHT22;16599;47.078;15.536;2022-09-24T04:20:41;5.00;99.90
29687;DHT22;16599;47.078;15.536;2022-09-24T04:23:09;5.10;99.90
29687;DHT22;16599;47.078;15.536;2022-09-24T04:25:36;5.10;99.90
29687;DHT22;16599;47.078;15.536;2022-09-24T04:28:05;5.00;99.90
29687;DHT22;16599;47.078;15.536;2022-09-24T04:30:33;5.00;99.90
29687;DHT22;16599;47.078;15.536;2022-09-24T04:33:00;4.80;99.90
29687;DHT22;16599;47.078;15.536;2022-09-24T04:35:30;4.60;99.90
29687;DHT22;16599;47.078;15.536;2022-09-24T04:37:57;4.70;99.90
29687;DHT22;16599;47.078;15.536;2022-09-24T04:40:25;4.80;99.90
29687;DHT22;16599;47.078;15.536;2022-09-24T04:42:53;4.80;99.90
29687;DHT22;16599;47.078;15.536;2022-09-24T04:45:20;4.80;99.90
29687;DHT22;16599;47.078;15.536;2022-09-24T04:47:48;4.90;99.90
29687;DHT22;16599;47.078;15.536;2022-09-24T04:50:26;5.00;99.90
29687;DHT22;16599;47.078;15.536;2022-09-24T04:52:54;5.10;99.90
29687;DHT22;16599;47.078;15.536;2022-09-24T04:55:22;4.90;99.90
29687;DHT22;16599;47.078;15.536;2022-09-24T04:57:49;4.80;99.90
29687;DHT22;16599;47.078;15.536;2022-09-24T05:00:18;4.80;99.90
29687;DHT22;16599;47.078;15.536;2022-09-24T05:02:45;4.90;99.90
29687;DHT22;16599;47.078;15.536;2022-09-24T05:05:12;4.80;99.90
29687;DHT22;16599;47.078;15.536;2022-09-24T05:07:40;4.80;99.90
29687;DHT22;16599;47.078;15.536;2022-09-24T05:10:10;4.90;99.90
29687;DHT22;16599;47.078;15.536;2022-09-24T05:12:39;5.10;99.90
29687;DHT22;16599;47.078;15.536;2022-09-24T05:15:06;5.20;99.90
29687;DHT22;16599;47.078;15.536;2022-09-24T05:17:37;5.00;99.90
29687;DHT22;16599;47.078;15.536;2022-09-24T05:20:05;5.00;99.90
29687;DHT22;16599;47.078;15.536;2022-09-24T05:22:32;5.00;99.90
29687;DHT22;16599;47.078;15.536;2022-09-24T05:24:59;5.00;99.90
29687;DHT22;16599;47.078;15.536;2022-09-24T05:27:26;5.10;99.90
29687;DHT22;16599;47.078;15.536;2022-09-24T05:29:52;5.30;99.90
29687;DHT22;16599;47.078;15.536;2022-09-24T05:32:19;5.40;99.90
29687;DHT22;16599;47.078;15.536;2022-09-24T05:34:46;5.60;99.90
29687;DHT22;16599;47.078;15.536;2022-09-24T05:37:14;5.70;99.90
29687;DHT22;16599;47.078;15.536;2022-09-24T05:39:41;5.80;99.90
29687;DHT22;16599;47.078;15.536;2022-09-24T05:42:11;5.80;99.90
29687;DHT22;16599;47.078;15.536;2022-09-24T05:44:41;5.90;99.90
29687;DHT22;16599;47.078;15.536;2022-09-24T05:47:17;5.90;99.90
29687;DHT22;16599;47.078;15.536;2022-09-24T05:49:44;5.90;99.90
29687;DHT22;16599;47.078;15.536;2022-09-24T05:52:11;6.10;99.90
29687;DHT22;16599;47.078;15.536;2022-09-24T05:54:38;6.10;99.90
29687;DHT22;16599;47.078;15.536;2022-09-24T05:57:05;6.20;99.90
29687;DHT22;16599;47.078;15.536;2022-09-24T05:59:32;6.30;99.90
29687;DHT22;16599;47.078;15.536;2022-09-24T06:01:59;6.30;99.90
29687;DHT22;16599;47.078;15.536;2022-09-24T06:04:25;6.30;99.90
29687;DHT22;16599;47.078;15.536;2022-09-24T06:06:53;6.30;99.90
29687;DHT22;16599;47.078;15.536;2022-09-24T06:09:20;6.40;99.90
29687;DHT22;16599;47.078;15.536;2022-09-24T06:11:46;6.50;99.90
29687;DHT22;16599;47.078;15.536;2022-09-24T06:14:16;6.50;99.90
29687;DHT22;16599;47.078;15.536;2022-09-24T06:16:43;6.60;99.90
29687;DHT22;16599;47.078;15.536;2022-09-24T06:19:10;6.70;99.90
29687;DHT22;16599;47.078;15.536;2022-09-24T06:21:37;6.80;99.90
29687;DHT22;16599;47.078;15.536;2022-09-24T06:24:03;6.80;99.90
29687;DHT22;16599;47.078;15.536;2022-09-24T06:26:30;6.80;99.90
29687;DHT22;16599;47.078;15.536;2022-09-24T06:28:58;6.90;99.90
29687;DHT22;16599;47.078;15.536;2022-09-24T06:31:30;6.90;99.90
29687;DHT22;16599;47.078;15.536;2022-09-24T06:33:57;7.00;99.90
29687;DHT22;16599;47.078;15.536;2022-09-24T06:36:24;7.10;99.90
29687;DHT22;16599;47.078;15.536;2022-09-24T06:38:51;7.10;99.90
29687;DHT22;16599;47.078;15.536;2022-09-24T06:41:18;7.20;99.90
29687;DHT22;16599;47.078;15.536;2022-09-24T06:43:45;7.40;99.90
29687;DHT22;16599;47.078;15.536;2022-09-24T06:46:12;7.50;99.90
29687;DHT22;16599;47.078;15.536;2022-09-24T06:48:41;7.60;99.90
29687;DHT22;16599;47.078;15.536;2022-09-24T06:51:08;7.70;99.90
29687;DHT22;16599;47.078;15.536;2022-09-24T06:53:35;7.80;99.90
29687;DHT22;16599;47.078;15.536;2022-09-24T06:56:02;8.00;99.90
29687;DHT22;16599;47.078;15.536;2022-09-24T06:58:29;8.00;99.90
29687;DHT22;16599;47.078;15.536;2022-09-24T07:00:57;8.20;99.90
29687;DHT22;16599;47.078;15.536;2022-09-24T07:03:26;8.30;99.90
29687;DHT22;16599;47.078;15.536;2022-09-24T07:05:54;8.30;99.90
29687;DHT22;16599;47.078;15.536;2022-09-24T07:08:22;8.40;99.90
29687;DHT22;16599;47.078;15.536;2022-09-24T07:10:49;8.40;99.90
29687;DHT22;16599;47.078;15.536;2022-09-24T07:13:16;8.50;99.90
29687;DHT22;16599;47.078;15.536;2022-09-24T07:15:43;8.50;99.90
29687;DHT22;16599;47.078;15.536;2022-09-24T07:18:11;8.60;99.90
29687;DHT22;16599;47.078;15.536;2022-09-24T07:20:43;8.70;99.90
29687;DHT22;16599;47.078;15.536;2022-09-24T07:23:11;8.90;99.90
29687;DHT22;16599;47.078;15.536;2022-09-24T07:25:38;9.00;99.90
29687;DHT22;16599;47.078;15.536;2022-09-24T07:28:10;9.00;99.90
29687;DHT22;16599;47.078;15.536;2022-09-24T07:30:38;9.20;99.90
29687;DHT22;16599;47.078;15.536;2022-09-24T07:33:05;9.20;99.90
29687;DHT22;16599;47.078;15.536;2022-09-24T07:35:39;9.50;99.90
29687;DHT22;16599;47.078;15.536;2022-09-24T07:38:10;9.50;99.90
29687;DHT22;16599;47.078;15.536;2022-09-24T07:40:41;9.70;99.90
29687;DHT22;16599;47.078;15.536;2022-09-24T07:43:09;9.90;99.90
29687;DHT22;16599;47.078;15.536;2022-09-24T07:45:40;9.90;99.90
29687;DHT22;16599;47.078;15.536;2022-09-24T07:48:08;10.00;99.90
29687;DHT22;16599;47.078;15.536;2022-09-24T07:50:39;10.30;99.90
29687;DHT22;16599;47.078;15.536;2022-09-24T07:53:11;10.40;99.90
29687;DHT22;16599;47.078;15.536;2022-09-24T07:55:38;10.50;99.90
29687;DHT22;16599;47.078;15.536;2022-09-24T07:58:10;10.60;99.90
29687;DHT22;16599;47.078;15.536;2022-09-24T08:00:37;10.70;99.90
29687;DHT22;16599;47.078;15.536;2022-09-24T08:03:04;10.90;99.90
29687;DHT22;16599;47.078;15.536;2022-09-24T08:05:31;11.10;99.90
29687;DHT22;16599;47.078;15.536;2022-09-24T08:07:58;11.20;99.90
29687;DHT22;16599;47.078;15.536;2022-09-24T08:10:26;11.40;99.90
29687;DHT22;16599;47.078;15.536;2022-09-24T08:12:54;11.60;99.90
29687;DHT22;16599;47.078;15.536;2022-09-24T08:15:23;11.90;99.90
29687;DHT22;16599;47.078;15.536;2022-09-24T08:17:51;12.00;99.90
29687;DHT22;16599;47.078;15.536;2022-09-24T08:20:18;12.10;99.90
29687;DHT22;16599;47.078;15.536;2022-09-24T08:22:47;12.20;99.90
29687;DHT22;16599;47.078;15.536;2022-09-24T08:25:13;12.50;99.90
29687;DHT22;16599;47.078;15.536;2022-09-24T08:27:40;12.60;99.90
29687;DHT22;16599;47.078;15.536;2022-09-24T08:30:08;12.80;99.90
29687;DHT22;16599;47.078;15.536;2022-09-24T08:32:35;13.00;99.90
29687;DHT22;16599;47.078;15.536;2022-09-24T08:35:01;13.10;99.90
29687;DHT22;16599;47.078;15.536;2022-09-24T08:37:28;13.00;99.90
29687;DHT22;16599;47.078;15.536;2022-09-24T08:39:55;13.10;99.90
29687;DHT22;16599;47.078;15.536;2022-09-24T08:44:56;13.40;99.90
29687;DHT22;16599;47.078;15.536;2022-09-24T08:47:56;13.50;99.90
29687;DHT22;16599;47.078;15.536;2022-09-24T08:50:30;13.50;99.90
29687;DHT22;16599;47.078;15.536;2022-09-24T08:53:11;13.60;99.90
29687;DHT22;16599;47.078;15.536;2022-09-24T08:55:45;13.80;99.90
29687;DHT22;16599;47.078;15.536;2022-09-24T09:00:56;13.80;99.90
29687;DHT22;16599;47.078;15.536;2022-09-24T09:06:00;13.90;99.90
29687;DHT22;16599;47.078;15.536;2022-09-24T09:08:33;13.90;99.90
29687;DHT22;16599;47.078;15.536;2022-09-24T09:11:24;14.00;99.90
29687;DHT22;16599;47.078;15.536;2022-09-24T09:14:02;14.10;99.90
29687;DHT22;16599;47.078;15.536;2022-09-24T09:19:10;14.00;99.90
29687;DHT22;16599;47.078;15.536;2022-09-24T09:24:49;14.00;99.90
29687;DHT22;16599;47.078;15.536;2022-09-24T09:27:20;14.10;99.90
29687;DHT22;16599;47.078;15.536;2022-09-24T09:29:50;14.30;99.90
29687;DHT22;16599;47.078;15.536;2022-09-24T09:32:34;14.30;99.90
29687;DHT22;16599;47.078;15.536;2022-09-24T09:35:17;14.30;99.90
29687;DHT22;16599;47.078;15.536;2022-09-24T09:37:56;14.30;99.90
29687;DHT22;16599;47.078;15.536;2022-09-24T09:40:44;14.30;99.90
29687;DHT22;16599;47.078;15.536;2022-09-24T09:43:12;14.20;99.90
29687;DHT22;16599;47.078;15.536;2022-09-24T09:48:20;14.20;99.90
29687;DHT22;16599;47.078;15.536;2022-09-24T09:50:50;14.20;99.90
29687;DHT22;16599;47.078;15.536;2022-09-24T09:53:19;14.20;99.90
29687;DHT22;16599;47.078;15.536;2022-09-24T09:55:55;14.40;99.90
29687;DHT22;16599;47.078;15.536;2022-09-24T09:58:26;14.70;99.90
29687;DHT22;16599;47.078;15.536;2022-09-24T10:03:47;14.90;99.90
29687;DHT22;16599;47.078;15.536;2022-09-24T10:06:29;15.10;99.90
29687;DHT22;16599;47.078;15.536;2022-09-24T10:09:18;15.10;99.90
29687;DHT22;16599;47.078;15.536;2022-09-24T10:11:47;15.20;99.90
29687;DHT22;16599;47.078;15.536;2022-09-24T10:14:15;15.40;99.90
29687;DHT22;16599;47.078;15.536;2022-09-24T10:16:46;15.50;99.90
29687;DHT22;16599;47.078;15.536;2022-09-24T10:19:25;15.70;99.90
29687;DHT22;16599;47.078;15.536;2022-09-24T10:21:55;15.90;99.90
29687;DHT22;16599;47.078;15.536;2022-09-24T10:24:25;16.00;99.90
29687;DHT22;16599;47.078;15.536;2022-09-24T10:26:53;16.20;99.90
29687;DHT22;16599;47.078;15.536;2022-09-24T10:29:25;16.10;99.90
29687;DHT22;16599;47.078;15.536;2022-09-24T10:32:21;15.90;99.90
29687;DHT22;16599;47.078;15.536;2022-09-24T10:37:22;16.10;99.80
29687;DHT22;16599;47.078;15.536;2022-09-24T10:39:59;16.20;99.50
29687;DHT22;16599;47.078;15.536;2022-09-24T10:42:28;16.30;99.90
29687;DHT22;16599;47.078;15.536;2022-09-24T10:44:58;16.60;99.60
29687;DHT22;16599;47.078;15.536;2022-09-24T10:47:52;16.80;97.40
29687;DHT22;16599;47.078;15.536;2022-09-24T10:53:06;16.70;97.50
29687;DHT22;16599;47.078;15.536;2022-09-24T10:55:55;17.00;98.60
29687;DHT22;16599;47.078;15.536;2022-09-24T10:58:30;16.90;97.10
29687;DHT22;16599;47.078;15.536;2022-09-24T11:01:18;17.00;97.70
29687;DHT22;16599;47.078;15.536;2022-09-24T11:09:06;16.70;97.60
29687;DHT22;16599;47.078;15.536;2022-09-24T11:15:31;16.90;96.50
29687;DHT22;16599;47.078;15.536;2022-09-24T11:17:46;17.00;96.80
29687;DHT22;16599;47.078;15.536;2022-09-24T11:20:37;17.30;97.10
29687;DHT22;16599;47.078;15.536;2022-09-24T11:23:26;17.50;97.40
29687;DHT22;16599;47.078;15.536;2022-09-24T11:39:41;17.90;94.90
29687;DHT22;16599;47.078;15.536;2022-09-24T11:42:24;17.80;95.00
29687;DHT22;16599;47.078;15.536;2022-09-24T11:53:42;18.10;93.40
29687;DHT22;16599;47.078;15.536;2022-09-24T11:58:44;18.20;94.20
29687;DHT22;16599;47.078;15.536;2022-09-24T12:01:25;18.20;93.50
29687;DHT22;16599;47.078;15.536;2022-09-24T12:06:47;18.10;93.20
29687;DHT22;16599;47.078;15.536;2022-09-24T12:09:32;18.20;95.80
29687;DHT22;16599;47.078;15.536;2022-09-24T12:12:07;18.20;94.80
29687;DHT22;16599;47.078;15.536;2022-09-24T12:14:45;18.40;96.40
29687;DHT22;16599;47.078;15.536;2022-09-24T12:17:25;18.50;94.30
29687;DHT22;16599;47.078;15.536;2022-09-24T12:20:01;18.20;93.60
29687;DHT22;16599;47.078;15.536;2022-09-24T12:22:30;17.70;94.90
29687;DHT22;16599;47.078;15.536;2022-09-24T12:24:59;17.60;95.10
29687;DHT22;16599;47.078;15.536;2022-09-24T12:27:35;17.90;96.40
29687;DHT22;16599;47.078;15.536;2022-09-24T12:31:00;18.10;96.30
29687;DHT22;16599;47.078;15.536;2022-09-24T12:33:39;18.30;94.70
29687;DHT22;16599;47.078;15.536;2022-09-24T12:36:44;17.90;94.00
29687;DHT22;16599;47.078;15.536;2022-09-24T12:39:27;18.10;95.10
29687;DHT22;16599;47.078;15.536;2022-09-24T12:42:03;18.30;94.60
29687;DHT22;16599;47.078;15.536;2022-09-24T12:44:57;18.50;94.40
29687;DHT22;16599;47.078;15.536;2022-09-24T12:47:27;18.40;93.10
29687;DHT22;16599;47.078;15.536;2022-09-24T12:49:57;17.90;92.90
29687;DHT22;16599;47.078;15.536;2022-09-24T12:52:40;17.80;92.70
29687;DHT22;16599;47.078;15.536;2022-09-24T12:55:29;17.80;92.70
29687;DHT22;16599;47.078;15.536;2022-09-24T12:58:05;17.90;94.10
29687;DHT22;16599;47.078;15.536;2022-09-24T13:00:43;18.00;92.30
29687;DHT22;16599;47.078;15.536;2022-09-24T13:03:35;18.00;91.60
29687;DHT22;16599;47.078;15.536;2022-09-24T13:06:17;18.00;91.60
29687;DHT22;16599;47.078;15.536;2022-09-24T13:08:46;18.30;93.40
29687;DHT22;16599;47.078;15.536;2022-09-24T13:16:28;18.50;91.70
29687;DHT22;16599;47.078;15.536;2022-09-24T13:18:58;18.40;91.40
29687;DHT22;16599;47.078;15.536;2022-09-24T13:21:28;18.30;91.50
29687;DHT22;16599;47.078;15.536;2022-09-24T13:23:55;18.30;92.30
29687;DHT22;16599;47.078;15.536;2022-09-24T13:26:28;18.20;92.40
29687;DHT22;16599;47.078;15.536;2022-09-24T13:29:04;18.40;93.50
29687;DHT22;16599;47.078;15.536;2022-09-24T13:31:46;18.40;92.40
29687;DHT22;16599;47.078;15.536;2022-09-24T13:34:25;18.60;94.60
29687;DHT22;16599;47.078;15.536;2022-09-24T13:42:20;18.40;91.90
29687;DHT22;16599;47.078;15.536;2022-09-24T13:44:57;18.60;92.50
29687;DHT22;16599;47.078;15.536;2022-09-24T13:47:46;18.80;90.50
29687;DHT22;16599;47.078;15.536;2022-09-24T13:50:47;19.20;90.10
29687;DHT22;16599;47.078;15.536;2022-09-24T13:56:02;19.00;90.00
29687;DHT22;16599;47.078;15.536;2022-09-24T13:58:35;18.70;91.20
29687;DHT22;16599;47.078;15.536;2022-09-24T14:03:39;18.70;91.10
29687;DHT22;16599;47.078;15.536;2022-09-24T14:06:19;18.50;91.40
29687;DHT22;16599;47.078;15.536;2022-09-24T14:08:48;18.50;90.60
29687;DHT22;16599;47.078;15.536;2022-09-24T14:11:22;18.40;91.70
29687;DHT22;16599;47.078;15.536;2022-09-24T14:13:53;18.40;93.20
29687;DHT22;16599;47.078;15.536;2022-09-24T14:16:23;18.50;94.80
29687;DHT22;16599;47.078;15.536;2022-09-24T14:19:01;18.40;95.60
29687;DHT22;16599;47.078;15.536;2022-09-24T14:21:38;18.30;94.00
29687;DHT22;16599;47.078;15.536;2022-09-24T14:24:20;18.40;94.50
29687;DHT22;16599;47.078;15.536;2022-09-24T14:26:57;18.30;94.60
29687;DHT22;16599;47.078;15.536;2022-09-24T14:29:37;18.30;94.30
29687;DHT22;16599;47.078;15.536;2022-09-24T14:32:36;18.30;95.30
29687;DHT22;16599;47.078;15.536;2022-09-24T14:35:20;18.30;96.10
29687;DHT22;16599;47.078;15.536;2022-09-24T14:38:04;18.20;98.80
29687;DHT22;16599;47.078;15.536;2022-09-24T14:40:48;17.90;99.40
29687;DHT22;16599;47.078;15.536;2022-09-24T14:43:40;18.00;99.60
29687;DHT22;16599;47.078;15.536;2022-09-24T14:46:15;17.90;99.50
29687;DHT22;16599;47.078;15.536;2022-09-24T14:48:43;17.90;97.40
29687;DHT22;16599;47.078;15.536;2022-09-24T14:51:30;17.80;96.70
29687;DHT22;16599;47.078;15.536;2022-09-24T14:54:18;17.70;99.30
29687;DHT22;16599;47.078;15.536;2022-09-24T14:56:45;17.70;97.20
29687;DHT22;16599;47.078;15.536;2022-09-24T14:59:14;17.70;99.90
29687;DHT22;16599;47.078;15.536;2022-09-24T15:01:42;17.60;99.90
29687;DHT22;16599;47.078;15.536;2022-09-24T15:04:25;17.50;99.90
29687;DHT22;16599;47.078;15.536;2022-09-24T15:06:53;17.50;99.90
29687;DHT22;16599;47.078;15.536;2022-09-24T15:09:27;17.40;99.90
29687;DHT22;16599;47.078;15.536;2022-09-24T15:11:54;17.20;99.90
29687;DHT22;16599;47.078;15.536;2022-09-24T15:14:32;17.10;99.90
29687;DHT22;16599;47.078;15.536;2022-09-24T15:17:09;17.10;99.90
29687;DHT22;16599;47.078;15.536;2022-09-24T15:19:36;17.00;99.90
29687;DHT22;16599;47.078;15.536;2022-09-24T15:22:07;16.90;99.90
29687;DHT22;16599;47.078;15.536;2022-09-24T15:24:35;16.90;99.90
29687;DHT22;16599;47.078;15.536;2022-09-24T15:27:05;16.80;99.90
29687;DHT22;16599;47.078;15.536;2022-09-24T15:29:32;16.70;99.90
29687;DHT22;16599;47.078;15.536;2022-09-24T15:32:00;16.60;99.90
29687;DHT22;16599;47.078;15.536;2022-09-24T15:34:27;16.50;99.90
29687;DHT22;16599;47.078;15.536;2022-09-24T15:37:15;16.40;99.90
29687;DHT22;16599;47.078;15.536;2022-09-24T15:39:43;16.50;99.90
29687;DHT22;16599;47.078;15.536;2022-09-24T15:42:29;16.40;99.90
29687;DHT22;16599;47.078;15.536;2022-09-24T15:44:57;16.40;99.90
29687;DHT22;16599;47.078;15.536;2022-09-24T15:47:24;16.30;99.90
29687;DHT22;16599;47.078;15.536;2022-09-24T15:49:51;16.20;99.90
29687;DHT22;16599;47.078;15.536;2022-09-24T15:52:24;16.20;99.90
29687;DHT22;16599;47.078;15.536;2022-09-24T15:54:53;16.00;99.90
29687;DHT22;16599;47.078;15.536;2022-09-24T15:57:21;15.80;99.90
29687;DHT22;16599;47.078;15.536;2022-09-24T15:59:48;15.60;99.90
29687;DHT22;16599;47.078;15.536;2022-09-24T16:02:22;15.70;99.90
29687;DHT22;16599;47.078;15.536;2022-09-24T16:04:50;15.70;99.90
29687;DHT22;16599;47.078;15.536;2022-09-24T16:07:17;15.60;99.90
29687;DHT22;16599;47.078;15.536;2022-09-24T16:09:44;15.50;99.90
29687;DHT22;16599;47.078;15.536;2022-09-24T16:12:14;15.40;99.90
29687;DHT22;16599;47.078;15.536;2022-09-24T16:14:41;15.30;99.90
29687;DHT22;16599;47.078;15.536;2022-09-24T16:17:08;15.30;99.90
29687;DHT22;16599;47.078;15.536;2022-09-24T16:19:35;15.30;99.90
29687;DHT22;16599;47.078;15.536;2022-09-24T16:22:02;15.10;99.90
29687;DHT22;16599;47.078;15.536;2022-09-24T16:24:33;15.00;99.90
29687;DHT22;16599;47.078;15.536;2022-09-24T16:27:00;15.00;99.90
29687;DHT22;16599;47.078;15.536;2022-09-24T16:29:27;14.90;99.90
29687;DHT22;16599;47.078;15.536;2022-09-24T16:31:54;14.90;99.90
29687;DHT22;16599;47.078;15.536;2022-09-24T16:34:21;14.70;99.90
29687;DHT22;16599;47.078;15.536;2022-09-24T16:36:48;14.70;99.90
29687;DHT22;16599;47.078;15.536;2022-09-24T16:39:14;14.70;99.90
29687;DHT22;16599;47.078;15.536;2022-09-24T16:41:41;14.80;99.90
29687;DHT22;16599;47.078;15.536;2022-09-24T16:44:10;14.70;99.90
29687;DHT22;16599;47.078;15.536;2022-09-24T16:46:44;14.60;99.90
29687;DHT22;16599;47.078;15.536;2022-09-24T16:49:11;14.40;99.90
29687;DHT22;16599;47.078;15.536;2022-09-24T16:51:38;14.30;99.90
29687;DHT22;16599;47.078;15.536;2022-09-24T16:54:05;14.20;99.90
29687;DHT22;16599;47.078;15.536;2022-09-24T16:56:33;14.00;99.90
29687;DHT22;16599;47.078;15.536;2022-09-24T16:58:59;13.80;99.90
29687;DHT22;16599;47.078;15.536;2022-09-24T17:01:26;14.00;99.90
29687;DHT22;16599;47.078;15.536;2022-09-24T17:03:55;14.10;99.90
29687;DHT22;16599;47.078;15.536;2022-09-24T17:06:28;13.90;99.90
29687;DHT22;16599;47.078;15.536;2022-09-24T17:08:55;13.70;99.90
29687;DHT22;16599;47.078;15.536;2022-09-24T17:11:41;13.70;99.90
29687;DHT22;16599;47.078;15.536;2022-09-24T17:14:09;13.70;99.90
29687;DHT22;16599;47.078;15.536;2022-09-24T17:16:39;13.90;99.90
29687;DHT22;16599;47.078;15.536;2022-09-24T17:19:07;13.60;99.90
29687;DHT22;16599;47.078;15.536;2022-09-24T17:21:36;13.00;99.90
29687;DHT22;16599;47.078;15.536;2022-09-24T17:24:04;12.80;99.90
29687;DHT22;16599;47.078;15.536;2022-09-24T17:26:31;12.80;99.90